createdAt,value
2023-07-30T00:00:28.612Z,7.40
2023-07-30T00:01:30.495Z,6.10
2023-07-30T00:02:32.225Z,5.68
2023-07-30T00:03:33.949Z,5.85
2023-07-30T00:04:35.547Z,7.25
2023-07-30T00:05:37.472Z,7.95
2023-07-30T00:06:39.056Z,7.35
2023-07-30T00:07:40.620Z,11.45
2023-07-30T00:08:45.251Z,13.43
2023-07-30T00:09:47.018Z,6.95
2023-07-30T00:10:48.675Z,7.10
2023-07-30T00:11:50.357Z,6.72
2023-07-30T00:12:52.091Z,5.93
2023-07-30T00:13:53.700Z,5.90
2023-07-30T00:14:55.278Z,7.65
2023-07-30T00:15:57.071Z,7.30
2023-07-30T00:16:58.671Z,7.55
2023-07-30T00:18:00.298Z,6.78
2023-07-30T00:19:02.133Z,7.28
2023-07-30T00:20:04.056Z,12.88
2023-07-30T00:21:05.698Z,17.17
2023-07-30T00:22:08.050Z,6.80
2023-07-30T00:23:09.932Z,7.90
2023-07-30T00:24:12.057Z,6.60
2023-07-30T00:25:13.677Z,6.32
2023-07-30T00:26:15.419Z,7.40
2023-07-30T00:27:17.243Z,6.13
2023-07-30T00:28:18.921Z,6.28
2023-07-30T00:29:20.730Z,6.65
2023-07-30T00:30:22.978Z,6.53
2023-07-30T00:31:24.588Z,7.03
2023-07-30T00:32:26.935Z,7.15
2023-07-30T00:33:29.322Z,5.35
2023-07-30T00:34:31.336Z,5.85
2023-07-30T00:35:33.400Z,5.43
2023-07-30T00:36:35.044Z,5.07
2023-07-30T00:37:37.251Z,4.43
2023-07-30T00:38:38.857Z,5.75
2023-07-30T00:39:40.442Z,6.10
2023-07-30T00:40:42.926Z,7.00
2023-07-30T00:41:44.809Z,5.85
2023-07-30T00:42:46.847Z,5.55
2023-07-30T00:43:48.488Z,5.82
2023-07-30T00:44:50.838Z,6.85
2023-07-30T00:45:53.082Z,6.43
2023-07-30T00:46:54.883Z,7.40
2023-07-30T00:47:57.124Z,7.15
2023-07-30T00:48:59.366Z,6.78
2023-07-30T00:50:02.166Z,6.78
2023-07-30T00:51:04.337Z,7.00
2023-07-30T00:52:08.898Z,7.22
2023-07-30T00:53:15.139Z,9.32
2023-07-30T00:54:17.408Z,7.80
2023-07-30T00:55:19.686Z,8.48
2023-07-30T00:56:21.906Z,6.45
2023-07-30T00:57:24.305Z,6.47
2023-07-30T00:58:26.352Z,5.88
2023-07-30T00:59:28.715Z,6.60
2023-07-30T01:00:31.428Z,7.75
2023-07-30T01:01:37.848Z,8.80
2023-07-30T01:02:39.596Z,7.35
2023-07-30T01:03:42.501Z,6.80
2023-07-30T01:04:45.097Z,7.20
2023-07-30T01:05:47.051Z,9.98
2023-07-30T01:06:48.705Z,7.38
2023-07-30T01:07:50.334Z,8.55
2023-07-30T01:08:52.103Z,7.22
2023-07-30T01:09:53.925Z,9.82
2023-07-30T01:10:55.859Z,8.10
2023-07-30T01:12:00.192Z,8.18
2023-07-30T01:13:04.344Z,7.07
2023-07-30T01:14:07.010Z,6.25
2023-07-30T01:15:10.322Z,9.57
2023-07-30T01:16:13.139Z,6.20
2023-07-30T01:17:15.186Z,8.07
2023-07-30T01:18:17.163Z,7.00
2023-07-30T01:19:18.999Z,7.28
2023-07-30T01:20:20.606Z,9.10
2023-07-30T01:21:22.879Z,9.85
2023-07-30T01:22:25.041Z,6.47
2023-07-30T01:23:28.064Z,5.28
2023-07-30T01:24:29.725Z,8.55
2023-07-30T01:25:37.329Z,5.88
2023-07-30T01:26:44.511Z,9.63
2023-07-30T01:27:53.307Z,5.05
2023-07-30T01:29:02.018Z,6.43
2023-07-30T01:30:23.024Z,5.80
2023-07-30T01:31:27.589Z,5.32
2023-07-30T01:32:30.832Z,5.72
2023-07-30T01:33:33.477Z,6.75
2023-07-30T01:34:40.155Z,7.55
2023-07-30T01:35:43.948Z,7.18
2023-07-30T01:36:47.088Z,6.57
2023-07-30T01:37:50.441Z,5.70
2023-07-30T01:38:53.084Z,4.80
2023-07-30T01:39:55.309Z,4.63
2023-07-30T01:40:57.372Z,5.05
2023-07-30T01:41:59.007Z,5.45
2023-07-30T01:43:00.683Z,6.05
2023-07-30T01:44:03.449Z,5.97
2023-07-30T01:45:06.895Z,6.40
2023-07-30T01:46:08.551Z,5.72
2023-07-30T01:47:10.419Z,8.18
2023-07-30T01:48:12.156Z,5.93
2023-07-30T01:49:13.753Z,5.03
2023-07-30T01:50:15.537Z,5.05
2023-07-30T01:51:17.471Z,4.93
2023-07-30T01:52:19.061Z,7.97
2023-07-30T01:53:20.720Z,4.57
2023-07-30T01:54:23.011Z,6.68
2023-07-30T01:55:24.660Z,5.50
2023-07-30T01:56:26.960Z,6.63
2023-07-30T01:57:28.624Z,4.85
2023-07-30T01:58:30.224Z,5.63
2023-07-30T01:59:32.062Z,3.75
2023-07-30T02:00:33.713Z,3.40
2023-07-30T02:01:43.132Z,3.78
2023-07-30T02:02:44.800Z,4.07
2023-07-30T02:03:47.254Z,7.72
2023-07-30T02:04:48.981Z,5.70
2023-07-30T02:05:50.984Z,4.03
2023-07-30T02:06:53.435Z,3.60
2023-07-30T02:07:55.052Z,4.35
2023-07-30T02:08:57.184Z,5.25
2023-07-30T02:09:58.964Z,3.97
2023-07-30T02:11:01.042Z,4.88
2023-07-30T02:12:03.630Z,4.72
2023-07-30T02:13:05.466Z,3.63
2023-07-30T02:14:07.365Z,4.88
2023-07-30T02:15:09.337Z,3.80
2023-07-30T02:16:12.092Z,4.18
2023-07-30T02:17:13.699Z,4.75
2023-07-30T02:18:17.236Z,5.82
2023-07-30T02:19:19.171Z,4.97
2023-07-30T02:20:20.751Z,7.82
2023-07-30T02:21:22.992Z,3.40
2023-07-30T02:22:24.669Z,3.58
2023-07-30T02:23:26.801Z,3.95
2023-07-30T02:24:28.411Z,3.55
2023-07-30T02:25:30.504Z,5.00
2023-07-30T02:26:32.227Z,3.00
2023-07-30T02:27:33.919Z,5.47
2023-07-30T02:28:35.580Z,5.85
2023-07-30T02:29:38.097Z,4.03
2023-07-30T02:30:39.701Z,4.00
2023-07-30T02:31:42.373Z,4.35
2023-07-30T02:32:44.100Z,4.85
2023-07-30T02:33:45.831Z,5.72
2023-07-30T02:34:48.470Z,6.10
2023-07-30T02:35:50.110Z,3.53
2023-07-30T02:36:52.044Z,3.92
2023-07-30T02:37:53.628Z,3.40
2023-07-30T02:38:55.254Z,4.50
2023-07-30T02:39:57.108Z,4.88
2023-07-30T02:40:58.805Z,3.50
2023-07-30T02:42:00.484Z,3.40
2023-07-30T02:43:05.337Z,3.53
2023-07-30T02:44:07.012Z,4.15
2023-07-30T02:45:09.070Z,5.78
2023-07-30T02:46:10.906Z,3.60
2023-07-30T02:47:13.635Z,5.40
2023-07-30T02:48:15.215Z,5.70
2023-07-30T02:49:17.130Z,4.00
2023-07-30T02:50:21.114Z,3.65
2023-07-30T02:51:23.327Z,4.15
2023-07-30T02:52:25.086Z,4.47
2023-07-30T02:53:27.133Z,4.78
2023-07-30T02:54:28.809Z,6.00
2023-07-30T02:55:30.447Z,4.65
2023-07-30T02:56:35.302Z,4.65
2023-07-30T02:57:37.144Z,4.97
2023-07-30T02:58:38.739Z,4.35
2023-07-30T02:59:41.942Z,6.18
2023-07-30T03:00:43.651Z,4.32
2023-07-30T03:01:45.680Z,7.72
2023-07-30T03:02:48.186Z,5.05
2023-07-30T03:03:49.948Z,5.65
2023-07-30T03:04:54.759Z,7.00
2023-07-30T03:05:58.485Z,5.75
2023-07-30T03:07:00.149Z,5.25
2023-07-30T03:08:03.115Z,5.20
2023-07-30T03:09:04.764Z,4.30
2023-07-30T03:10:06.973Z,5.80
2023-07-30T03:11:08.610Z,7.97
2023-07-30T03:12:10.719Z,4.78
2023-07-30T03:13:13.050Z,5.65
2023-07-30T03:14:14.733Z,6.93
2023-07-30T03:15:16.774Z,6.30
2023-07-30T03:16:18.561Z,5.38
2023-07-30T03:17:20.387Z,5.18
2023-07-30T03:18:22.118Z,5.90
2023-07-30T03:19:23.735Z,7.10
2023-07-30T03:20:25.372Z,6.22
2023-07-30T03:21:27.140Z,5.40
2023-07-30T03:22:28.734Z,5.20
2023-07-30T03:23:30.571Z,5.15
2023-07-30T03:24:32.805Z,5.93
2023-07-30T03:25:34.539Z,5.38
2023-07-30T03:26:36.426Z,5.88
2023-07-30T03:27:38.579Z,4.88
2023-07-30T03:28:41.225Z,5.38
2023-07-30T03:29:43.425Z,6.13
2023-07-30T03:30:45.062Z,4.97
2023-07-30T03:31:46.824Z,6.13
2023-07-30T03:32:48.446Z,7.00
2023-07-30T03:33:50.359Z,5.95
2023-07-30T03:34:52.144Z,5.55
2023-07-30T03:35:55.523Z,6.10
2023-07-30T03:37:01.674Z,6.43
2023-07-30T03:38:04.340Z,5.65
2023-07-30T03:39:05.937Z,5.10
2023-07-30T03:40:08.839Z,8.45
2023-07-30T03:41:13.317Z,6.57
2023-07-30T03:42:15.346Z,5.70
2023-07-30T03:43:17.267Z,5.80
2023-07-30T03:44:18.994Z,7.13
2023-07-30T03:45:21.156Z,7.35
2023-07-30T03:46:23.698Z,8.38
2023-07-30T03:47:25.426Z,6.60
2023-07-30T03:48:27.137Z,6.32
2023-07-30T03:49:28.865Z,8.57
2023-07-30T03:50:30.507Z,6.65
2023-07-30T03:51:33.823Z,6.28
2023-07-30T03:52:37.234Z,5.15
2023-07-30T03:53:38.873Z,5.53
2023-07-30T03:54:40.894Z,7.63
2023-07-30T03:55:43.352Z,6.40
2023-07-30T03:56:44.990Z,6.53
2023-07-30T03:57:46.837Z,5.88
2023-07-30T03:58:48.736Z,5.15
2023-07-30T03:59:50.339Z,6.85
2023-07-30T04:00:52.255Z,7.47
2023-07-30T04:01:54.239Z,5.43
2023-07-30T04:02:57.754Z,5.43
2023-07-30T04:03:59.426Z,5.32
2023-07-30T04:05:01.106Z,5.60
2023-07-30T04:06:03.447Z,5.30
2023-07-30T04:07:05.382Z,5.57
2023-07-30T04:08:07.196Z,6.15
2023-07-30T04:09:09.187Z,7.60
2023-07-30T04:10:10.863Z,7.05
2023-07-30T04:11:13.194Z,5.88
2023-07-30T04:12:14.784Z,5.28
2023-07-30T04:13:16.983Z,5.82
2023-07-30T04:14:18.657Z,7.70
2023-07-30T04:15:20.282Z,6.75
2023-07-30T04:16:22.300Z,5.10
2023-07-30T04:17:23.969Z,5.32
2023-07-30T04:18:25.682Z,4.95
2023-07-30T04:19:28.036Z,5.25
2023-07-30T04:20:29.632Z,5.60
2023-07-30T04:21:31.483Z,6.40
2023-07-30T04:22:34.042Z,6.00
2023-07-30T04:23:35.741Z,6.35
2023-07-30T04:24:38.414Z,7.60
2023-07-30T04:25:41.886Z,7.07
2023-07-30T04:26:43.611Z,6.13
2023-07-30T04:27:45.352Z,7.10
2023-07-30T04:28:47.134Z,6.47
2023-07-30T04:29:49.363Z,6.18
2023-07-30T04:30:51.914Z,5.88
2023-07-30T04:31:53.707Z,5.45
2023-07-30T04:32:56.018Z,6.05
2023-07-30T04:33:58.351Z,6.90
2023-07-30T04:35:01.032Z,5.13
2023-07-30T04:36:03.552Z,5.25
2023-07-30T04:37:05.875Z,5.63
2023-07-30T04:38:09.150Z,5.35
2023-07-30T04:39:10.937Z,6.10
2023-07-30T04:40:13.344Z,5.70
2023-07-30T04:41:15.517Z,8.32
2023-07-30T04:42:22.696Z,6.47
2023-07-30T04:43:24.366Z,6.75
2023-07-30T04:44:30.439Z,5.30
2023-07-30T04:45:38.297Z,5.32
2023-07-30T04:46:40.038Z,5.53
2023-07-30T04:47:42.033Z,6.30
2023-07-30T04:48:45.211Z,5.90
2023-07-30T04:49:48.537Z,7.80
2023-07-30T04:50:50.211Z,8.05
2023-07-30T04:51:54.086Z,5.10
2023-07-30T04:52:56.128Z,5.15
2023-07-30T04:53:58.772Z,7.35
2023-07-30T04:55:00.461Z,5.28
2023-07-30T04:56:02.134Z,5.32
2023-07-30T04:57:04.382Z,6.57
2023-07-30T04:58:06.502Z,6.63
2023-07-30T04:59:08.607Z,6.75
2023-07-30T05:00:10.786Z,7.00
2023-07-30T05:01:13.127Z,5.70
2023-07-30T05:02:14.777Z,6.40
2023-07-30T05:03:17.192Z,7.50
2023-07-30T05:04:18.882Z,5.35
2023-07-30T05:05:21.054Z,7.35
2023-07-30T05:06:24.114Z,6.82
2023-07-30T05:07:25.756Z,7.80
2023-07-30T05:08:28.068Z,6.13
2023-07-30T05:09:29.684Z,5.30
2023-07-30T05:10:31.452Z,6.78
2023-07-30T05:11:33.546Z,5.75
2023-07-30T05:12:35.272Z,7.78
2023-07-30T05:13:37.489Z,6.43
2023-07-30T05:14:39.157Z,6.32
2023-07-30T05:15:40.796Z,7.43
2023-07-30T05:16:43.196Z,6.82
2023-07-30T05:17:44.868Z,6.78
2023-07-30T05:18:47.135Z,5.50
2023-07-30T05:19:48.760Z,5.30
2023-07-30T05:20:50.497Z,7.22
2023-07-30T05:21:54.524Z,6.18
2023-07-30T05:22:57.546Z,5.32
2023-07-30T05:23:59.202Z,7.05
2023-07-30T05:25:00.769Z,9.25
2023-07-30T05:26:03.209Z,5.53
2023-07-30T05:27:05.211Z,8.45
2023-07-30T05:28:08.385Z,7.57
2023-07-30T05:29:10.173Z,7.65
2023-07-30T05:30:12.176Z,5.75
2023-07-30T05:31:13.956Z,6.55
2023-07-30T05:32:15.664Z,6.72
2023-07-30T05:33:18.029Z,6.55
2023-07-30T05:34:19.728Z,7.60
2023-07-30T05:35:21.814Z,7.43
2023-07-30T05:36:23.445Z,5.63
2023-07-30T05:37:25.105Z,8.27
2023-07-30T05:38:27.034Z,7.22
2023-07-30T05:39:28.745Z,6.43
2023-07-30T05:40:30.364Z,5.80
2023-07-30T05:41:32.068Z,7.40
2023-07-30T05:42:33.856Z,6.43
2023-07-30T05:43:35.463Z,8.07
2023-07-30T05:44:37.067Z,6.70
2023-07-30T05:45:38.757Z,8.05
2023-07-30T05:46:40.506Z,9.88
2023-07-30T05:47:43.005Z,6.38
2023-07-30T05:48:44.839Z,8.40
2023-07-30T05:49:46.803Z,8.38
2023-07-30T05:50:48.527Z,5.88
2023-07-30T05:51:50.207Z,7.13
2023-07-30T05:52:52.089Z,6.10
2023-07-30T05:53:57.041Z,9.43
2023-07-30T05:54:58.708Z,11.00
2023-07-30T05:56:00.448Z,6.10
2023-07-30T05:57:02.229Z,7.68
2023-07-30T05:58:03.853Z,6.38
2023-07-30T05:59:05.593Z,9.55
2023-07-30T06:00:08.291Z,6.70
2023-07-30T06:02:19.106Z,7.88
2023-07-30T06:03:22.344Z,6.40
2023-07-30T06:04:24.004Z,7.25
2023-07-30T06:05:25.663Z,10.40
2023-07-30T06:06:30.409Z,7.13
2023-07-30T06:07:32.477Z,7.35
2023-07-30T06:08:34.626Z,6.47
2023-07-30T06:09:37.125Z,7.22
2023-07-30T06:10:39.662Z,4.90
2023-07-30T06:11:41.559Z,7.25
2023-07-30T06:12:43.595Z,7.00
2023-07-30T06:13:45.276Z,10.55
2023-07-30T06:14:46.927Z,7.63
2023-07-30T06:15:48.716Z,9.00
2023-07-30T06:16:53.444Z,7.97
2023-07-30T06:17:55.164Z,5.35
2023-07-30T06:18:57.192Z,6.35
2023-07-30T06:19:58.816Z,11.50
2023-07-30T06:21:03.231Z,11.52
2023-07-30T06:22:04.969Z,8.52
2023-07-30T06:23:07.058Z,10.98
2023-07-30T06:24:08.664Z,6.35
2023-07-30T06:25:10.349Z,7.65
2023-07-30T06:26:12.111Z,7.30
2023-07-30T06:27:13.958Z,10.15
2023-07-30T06:28:15.645Z,8.82
2023-07-30T06:29:18.354Z,8.52
2023-07-30T06:30:19.974Z,11.60
2023-07-30T06:31:22.165Z,9.73
2023-07-30T06:32:23.841Z,6.72
2023-07-30T06:33:27.218Z,7.93
2023-07-30T06:34:29.107Z,12.75
2023-07-30T06:35:30.700Z,7.82
2023-07-30T06:36:33.002Z,5.78
2023-07-30T06:37:35.660Z,8.88
2023-07-30T06:38:38.672Z,8.48
2023-07-30T06:39:40.434Z,9.32
2023-07-30T06:40:42.259Z,8.18
2023-07-30T06:41:43.907Z,9.18
2023-07-30T06:42:47.023Z,12.35
2023-07-30T06:43:48.741Z,9.63
2023-07-30T06:44:50.431Z,9.77
2023-07-30T06:45:52.215Z,8.13
2023-07-30T06:46:57.332Z,7.53
2023-07-30T06:47:59.287Z,8.68
2023-07-30T06:49:01.993Z,11.15
2023-07-30T06:50:04.921Z,10.32
2023-07-30T06:51:08.873Z,10.65
2023-07-30T06:52:10.479Z,10.65
2023-07-30T06:53:12.644Z,11.95
2023-07-30T06:54:14.333Z,7.28
2023-07-30T06:55:16.548Z,13.05
2023-07-30T06:56:18.865Z,9.93
2023-07-30T06:57:20.494Z,9.80
2023-07-30T06:58:22.281Z,11.57
2023-07-30T06:59:23.868Z,8.45
2023-07-30T07:00:25.475Z,11.13
2023-07-30T07:01:28.194Z,9.55
2023-07-30T07:02:33.035Z,11.73
2023-07-30T07:03:34.794Z,8.57
2023-07-30T07:04:36.951Z,12.25
2023-07-30T07:05:38.558Z,11.05
2023-07-30T07:06:40.280Z,13.85
2023-07-30T07:07:42.203Z,11.23
2023-07-30T07:08:43.844Z,13.00
2023-07-30T07:09:45.418Z,8.82
2023-07-30T07:10:47.112Z,9.57
2023-07-30T07:11:49.117Z,11.27
2023-07-30T07:12:51.053Z,9.07
2023-07-30T07:13:53.798Z,11.90
2023-07-30T07:14:59.247Z,9.38
2023-07-30T07:16:00.969Z,9.65
2023-07-30T07:17:03.345Z,9.90
2023-07-30T07:18:05.041Z,10.07
2023-07-30T07:19:07.935Z,10.88
2023-07-30T07:20:09.925Z,12.13
2023-07-30T07:21:12.073Z,12.27
2023-07-30T07:22:13.902Z,10.70
2023-07-30T07:23:15.553Z,12.90
2023-07-30T07:24:18.354Z,8.80
2023-07-30T07:25:22.665Z,12.55
2023-07-30T07:26:24.444Z,13.18
2023-07-30T07:27:27.058Z,8.73
2023-07-30T07:28:28.711Z,12.88
2023-07-30T07:29:30.407Z,15.68
2023-07-30T07:30:33.036Z,13.10
2023-07-30T07:31:36.100Z,7.22
2023-07-30T07:32:39.924Z,9.25
2023-07-30T07:33:44.643Z,9.43
2023-07-30T07:34:50.035Z,14.27
2023-07-30T07:35:51.946Z,9.75
2023-07-30T07:36:53.581Z,12.02
2023-07-30T07:37:55.201Z,10.00
2023-07-30T07:38:58.096Z,10.10
2023-07-30T07:39:59.677Z,10.38
2023-07-30T07:41:03.241Z,11.50
2023-07-30T07:42:04.999Z,13.15
2023-07-30T07:43:08.151Z,8.90
2023-07-30T07:44:09.781Z,13.65
2023-07-30T07:45:11.933Z,13.13
2023-07-30T07:46:16.439Z,8.52
2023-07-30T07:47:18.624Z,10.27
2023-07-30T07:48:20.488Z,10.23
2023-07-30T07:49:22.216Z,7.70
2023-07-30T07:50:23.916Z,10.32
2023-07-30T07:51:27.259Z,7.57
2023-07-30T07:52:28.930Z,10.10
2023-07-30T07:53:30.526Z,11.23
2023-07-30T07:54:32.809Z,10.57
2023-07-30T07:55:34.399Z,11.40
2023-07-30T07:56:35.986Z,13.65
2023-07-30T07:57:39.012Z,10.40
2023-07-30T07:58:40.851Z,8.43
2023-07-30T07:59:45.986Z,10.75
2023-07-30T08:00:48.551Z,8.15
2023-07-30T08:01:50.356Z,11.30
2023-07-30T08:02:52.232Z,12.93
2023-07-30T08:03:53.974Z,12.75
2023-07-30T08:04:55.773Z,10.48
2023-07-30T08:05:58.452Z,12.07
2023-07-30T08:07:04.230Z,11.13
2023-07-30T08:08:05.892Z,9.77
2023-07-30T08:09:08.361Z,9.55
2023-07-30T08:10:10.341Z,9.93
2023-07-30T08:11:14.689Z,32.00
2023-07-30T08:12:16.822Z,9.85
2023-07-30T08:13:18.591Z,9.63
2023-07-30T08:14:22.253Z,9.00
2023-07-30T08:15:24.230Z,9.75
2023-07-30T08:16:27.058Z,8.35
2023-07-30T08:17:29.102Z,10.50
2023-07-30T08:18:30.812Z,10.02
2023-07-30T08:19:32.943Z,8.15
2023-07-30T08:20:34.647Z,14.35
2023-07-30T08:21:37.189Z,10.20
2023-07-30T08:22:39.028Z,13.35
2023-07-30T08:23:40.889Z,8.18
2023-07-30T08:24:42.912Z,8.77
2023-07-30T08:25:44.776Z,9.90
2023-07-30T08:26:47.959Z,12.27
2023-07-30T08:27:49.583Z,7.43
2023-07-30T08:28:52.118Z,10.45
2023-07-30T08:29:53.758Z,9.55
2023-07-30T08:31:05.190Z,11.48
2023-07-30T08:32:07.254Z,8.00
2023-07-30T08:33:08.896Z,12.35
2023-07-30T08:34:10.547Z,13.13
2023-07-30T08:35:12.355Z,13.32
2023-07-30T08:36:14.096Z,10.25
2023-07-30T08:37:16.073Z,10.82
2023-07-30T08:38:18.581Z,8.15
2023-07-30T08:39:20.475Z,13.65
2023-07-30T08:40:24.708Z,14.75
2023-07-30T08:41:27.479Z,9.20
2023-07-30T08:42:29.238Z,9.43
2023-07-30T08:43:32.372Z,8.50
2023-07-30T08:44:34.082Z,10.63
2023-07-30T08:45:38.281Z,12.95
2023-07-30T08:46:39.980Z,11.60
2023-07-30T08:47:42.683Z,6.88
2023-07-30T08:48:46.490Z,15.23
2023-07-30T08:49:49.292Z,11.25
2023-07-30T08:50:52.170Z,7.47
2023-07-30T08:51:55.231Z,9.60
2023-07-30T08:53:02.337Z,10.07
2023-07-30T08:54:04.622Z,7.38
2023-07-30T08:55:08.054Z,11.98
2023-07-30T08:56:10.443Z,12.68
2023-07-30T08:57:13.303Z,8.85
2023-07-30T08:58:19.023Z,15.75
2023-07-30T08:59:23.261Z,9.05
2023-07-30T09:00:30.804Z,12.57
2023-07-30T09:01:38.982Z,9.18
2023-07-30T09:02:48.279Z,8.77
2023-07-30T09:03:52.020Z,13.18
2023-07-30T09:05:01.899Z,10.13
2023-07-30T09:06:03.714Z,12.60
2023-07-30T09:07:09.191Z,11.35
2023-07-30T09:08:12.070Z,8.05
2023-07-30T09:09:14.447Z,12.80
2023-07-30T09:10:17.383Z,7.40
2023-07-30T09:11:19.271Z,7.13
2023-07-30T09:12:21.002Z,10.45
2023-07-30T09:13:27.253Z,9.02
2023-07-30T09:14:28.922Z,9.13
2023-07-30T09:15:34.870Z,11.85
2023-07-30T09:16:37.006Z,10.25
2023-07-30T09:17:42.499Z,15.20
2023-07-30T09:18:48.707Z,10.30
2023-07-30T09:19:52.820Z,12.00
2023-07-30T09:20:54.568Z,8.10
2023-07-30T09:21:56.580Z,8.88
2023-07-30T09:23:00.286Z,13.95
2023-07-30T09:24:08.458Z,8.02
2023-07-30T09:26:14.025Z,10.40
2023-07-30T09:27:15.646Z,9.23
2023-07-30T09:28:20.220Z,10.82
2023-07-30T09:29:23.491Z,8.68
2023-07-30T09:30:26.978Z,9.70
2023-07-30T09:31:28.820Z,8.77
2023-07-30T09:32:33.080Z,8.55
2023-07-30T09:33:36.345Z,9.88
2023-07-30T09:34:45.631Z,8.10
2023-07-30T09:35:48.039Z,8.45
2023-07-30T09:36:53.041Z,8.98
2023-07-30T09:38:02.374Z,9.93
2023-07-30T09:39:04.994Z,11.55
2023-07-30T09:40:08.595Z,7.35
2023-07-30T09:41:13.543Z,8.15
2023-07-30T09:42:15.549Z,8.23
2023-07-30T09:43:18.540Z,10.60
2023-07-30T09:44:23.199Z,8.60
2023-07-30T09:45:33.999Z,6.32
2023-07-30T09:46:45.607Z,10.68
2023-07-30T09:47:52.993Z,10.23
2023-07-30T09:48:54.669Z,11.15
2023-07-30T09:49:56.816Z,11.52
2023-07-30T09:51:44.663Z,8.13
2023-07-30T09:52:47.855Z,10.00
2023-07-30T09:53:59.275Z,10.50
2023-07-30T09:56:09.879Z,8.57
2023-07-30T09:57:12.439Z,9.52
2023-07-30T09:58:14.402Z,9.55
2023-07-30T09:59:19.238Z,6.20
2023-07-30T10:00:24.513Z,10.07
2023-07-30T10:01:29.306Z,10.75
2023-07-30T10:02:33.946Z,9.93
2023-07-30T10:03:37.307Z,9.52
2023-07-30T10:04:45.173Z,9.10
2023-07-30T10:05:49.065Z,9.10
2023-07-30T10:06:59.723Z,9.07
2023-07-30T10:08:09.873Z,11.07
2023-07-30T10:09:23.888Z,9.38
2023-07-30T10:10:37.202Z,6.03
2023-07-30T10:11:40.995Z,9.48
2023-07-30T10:12:52.579Z,10.55
2023-07-30T10:13:55.684Z,6.32
2023-07-30T10:14:57.903Z,7.07
2023-07-30T10:16:00.291Z,9.85
2023-07-30T10:17:07.930Z,9.48
2023-07-30T10:18:09.736Z,7.40
2023-07-30T10:19:12.083Z,9.43
2023-07-30T10:20:30.112Z,10.73
2023-07-30T10:21:34.022Z,9.13
2023-07-30T10:22:44.758Z,10.18
2023-07-30T10:23:59.878Z,9.38
2023-07-30T10:25:04.982Z,12.65
2023-07-30T10:26:13.576Z,10.45
2023-07-30T10:27:25.882Z,7.97
2023-07-30T10:28:35.425Z,11.30
2023-07-30T10:29:39.380Z,10.68
2023-07-30T10:30:41.380Z,9.98
2023-07-30T10:32:08.138Z,9.82
2023-07-30T10:33:10.783Z,14.77
2023-07-30T10:34:22.158Z,8.43
2023-07-30T10:35:55.039Z,11.88
2023-07-30T10:36:57.296Z,8.20
2023-07-30T10:38:03.317Z,8.90
2023-07-30T10:39:23.287Z,10.45
2023-07-30T10:40:29.635Z,6.45
2023-07-30T10:41:35.997Z,11.55
2023-07-30T10:42:40.526Z,8.45
2023-07-30T10:43:54.822Z,9.68
2023-07-30T10:44:59.383Z,9.82
2023-07-30T10:46:03.109Z,8.50
2023-07-30T10:47:05.369Z,13.60
2023-07-30T10:48:10.253Z,7.80
2023-07-30T10:49:14.479Z,9.20
2023-07-30T10:50:18.061Z,9.60
2023-07-30T10:51:22.223Z,9.80
2023-07-30T10:52:29.497Z,7.35
2023-07-30T10:53:37.243Z,8.32
2023-07-30T10:54:39.425Z,5.43
2023-07-30T10:55:41.496Z,9.35
2023-07-30T10:56:46.969Z,7.35
2023-07-30T10:58:09.667Z,11.88
2023-07-30T10:59:16.268Z,9.25
2023-07-30T11:00:18.683Z,8.20
2023-07-30T11:01:20.570Z,9.57
2023-07-30T11:02:23.438Z,7.93
2023-07-30T11:03:29.262Z,7.50
2023-07-30T11:04:35.968Z,10.15
2023-07-30T11:05:42.018Z,6.28
2023-07-30T11:06:51.958Z,8.82
2023-07-30T11:07:53.676Z,6.78
2023-07-30T11:08:55.464Z,11.63
2023-07-30T11:10:03.048Z,7.80
2023-07-30T11:11:06.794Z,10.88
2023-07-30T11:12:10.070Z,6.55
2023-07-30T11:13:13.144Z,6.95
2023-07-30T11:14:59.139Z,6.95
2023-07-30T11:16:00.840Z,12.80
2023-07-30T11:17:03.736Z,9.80
2023-07-30T11:18:08.161Z,10.55
2023-07-30T11:19:10.158Z,13.07
2023-07-30T11:20:29.062Z,9.95
2023-07-30T11:21:30.666Z,8.05
2023-07-30T11:22:38.591Z,13.15
2023-07-30T11:23:43.404Z,7.57
2023-07-30T11:24:45.417Z,7.53
2023-07-30T11:25:53.479Z,4.40
2023-07-30T11:27:02.968Z,5.82
2023-07-30T11:28:04.857Z,7.70
2023-07-30T11:29:22.617Z,7.60
2023-07-30T11:30:24.286Z,5.97
2023-07-30T11:31:28.303Z,6.28
2023-07-30T11:32:31.505Z,5.50
2023-07-30T11:33:36.609Z,8.60
2023-07-30T11:34:41.494Z,6.28
2023-07-30T11:35:46.561Z,4.82
2023-07-30T11:36:53.364Z,6.32
2023-07-30T11:37:55.107Z,6.28
2023-07-30T11:38:58.306Z,7.90
2023-07-30T11:40:00.959Z,4.43
2023-07-30T11:41:06.989Z,5.30
2023-07-30T11:42:22.141Z,7.97
2023-07-30T11:43:24.924Z,4.97
2023-07-30T11:44:50.617Z,9.15
2023-07-30T11:46:15.720Z,8.10
2023-07-30T11:47:33.414Z,8.52
2023-07-30T11:48:37.194Z,9.82
2023-07-30T11:50:57.220Z,7.47
2023-07-30T11:52:13.418Z,5.32
2023-07-30T11:53:15.865Z,6.50
2023-07-30T11:54:24.374Z,7.10
2023-07-30T11:55:39.419Z,6.00
2023-07-30T11:56:42.308Z,4.65
2023-07-30T11:57:44.004Z,7.18
2023-07-30T11:58:47.320Z,7.15
2023-07-30T11:59:49.204Z,7.80
2023-07-30T12:00:50.929Z,7.13
2023-07-30T12:01:53.616Z,7.47
2023-07-30T12:02:55.463Z,5.28
2023-07-30T12:04:00.584Z,4.40
2023-07-30T12:05:12.297Z,5.90
2023-07-30T12:06:14.514Z,5.30
2023-07-30T12:07:26.009Z,4.22
2023-07-30T12:08:29.043Z,3.17
2023-07-30T12:09:37.060Z,4.30
2023-07-30T12:10:45.472Z,5.65
2023-07-30T12:11:50.264Z,4.45
2023-07-30T12:12:59.849Z,6.03
2023-07-30T12:14:04.735Z,4.88
2023-07-30T12:15:15.992Z,4.65
2023-07-30T12:16:21.822Z,4.88
2023-07-30T12:17:26.890Z,8.93
2023-07-30T12:18:33.270Z,5.18
2023-07-30T12:19:38.978Z,5.55
2023-07-30T12:20:42.165Z,5.55
2023-07-30T12:21:44.849Z,5.57
2023-07-30T12:22:47.082Z,3.58
2023-07-30T12:23:49.434Z,4.20
2023-07-30T12:24:51.441Z,6.63
2023-07-30T12:25:58.171Z,6.22
2023-07-30T12:27:00.122Z,6.30
2023-07-30T12:28:02.645Z,4.30
2023-07-30T12:29:04.421Z,5.93
2023-07-30T12:30:07.240Z,5.50
2023-07-30T12:31:08.827Z,4.90
2023-07-30T12:32:10.477Z,3.63
2023-07-30T12:33:12.573Z,6.05
2023-07-30T12:34:14.822Z,5.68
2023-07-30T12:35:16.792Z,6.10
2023-07-30T12:36:18.554Z,5.63
2023-07-30T12:37:20.332Z,4.32
2023-07-30T12:38:24.503Z,6.63
2023-07-30T12:39:26.354Z,4.65
2023-07-30T12:40:48.017Z,6.10
2023-07-30T12:41:54.373Z,8.40
2023-07-30T12:42:57.134Z,4.63
2023-07-30T12:43:58.874Z,6.32
2023-07-30T12:45:00.636Z,4.22
2023-07-30T12:46:03.342Z,4.88
2023-07-30T12:47:08.930Z,3.92
2023-07-30T12:48:12.449Z,4.57
2023-07-30T12:49:23.475Z,3.13
2023-07-30T12:50:25.666Z,5.00
2023-07-30T12:51:30.351Z,4.68
2023-07-30T12:52:44.536Z,5.00
2023-07-30T12:53:49.175Z,5.35
2023-07-30T12:54:51.990Z,4.32
2023-07-30T12:55:53.662Z,3.17
2023-07-30T12:56:55.393Z,6.20
2023-07-30T12:57:59.846Z,4.68
2023-07-30T12:59:09.288Z,5.50
2023-07-30T13:00:12.081Z,5.28
2023-07-30T13:01:13.831Z,4.60
2023-07-30T13:02:15.639Z,3.67
2023-07-30T13:03:24.406Z,5.07
2023-07-30T13:05:33.217Z,3.28
2023-07-30T13:06:35.160Z,8.18
2023-07-30T13:07:39.961Z,6.38
2023-07-30T13:08:43.994Z,3.35
2023-07-30T13:10:08.444Z,7.70
2023-07-30T13:11:30.378Z,5.65
2023-07-30T13:12:44.578Z,6.15
2023-07-30T13:13:49.802Z,4.97
2023-07-30T13:15:09.768Z,6.35
2023-07-30T13:16:39.919Z,5.18
2023-07-30T13:18:04.676Z,5.05
2023-07-30T13:19:12.060Z,4.53
2023-07-30T13:20:41.432Z,10.02
2023-07-30T13:22:07.430Z,6.32
2023-07-30T13:23:13.350Z,6.40
2023-07-30T13:24:14.936Z,3.85
2023-07-30T13:25:17.021Z,5.75
2023-07-30T13:26:22.404Z,7.10
2023-07-30T13:27:24.063Z,7.15
2023-07-30T13:28:28.409Z,4.53
2023-07-30T13:29:30.059Z,4.65
2023-07-30T13:30:32.577Z,4.90
2023-07-30T13:31:34.468Z,5.88
2023-07-30T13:32:40.356Z,5.45
2023-07-30T13:33:42.276Z,6.45
2023-07-30T13:34:44.811Z,5.00
2023-07-30T13:35:46.818Z,6.00
2023-07-30T13:36:48.482Z,7.57
2023-07-30T13:37:50.185Z,6.43
2023-07-30T13:38:52.171Z,6.28
2023-07-30T13:39:53.786Z,5.47
2023-07-30T13:41:38.786Z,10.32
2023-07-30T13:42:48.305Z,9.23
2023-07-30T13:43:50.258Z,8.45
2023-07-30T13:44:58.419Z,9.20
2023-07-30T13:46:12.238Z,5.38
2023-07-30T13:47:15.430Z,7.07
2023-07-30T13:48:18.384Z,3.88
2023-07-30T13:49:23.415Z,4.13
2023-07-30T13:50:30.949Z,4.68
2023-07-30T13:51:54.920Z,4.93
2023-07-30T13:52:56.990Z,4.55
2023-07-30T13:54:04.792Z,2.80
2023-07-30T13:55:25.625Z,4.88
2023-07-30T13:56:29.276Z,3.67
2023-07-30T13:57:31.022Z,3.78
2023-07-30T13:58:43.221Z,5.57
2023-07-30T14:00:00.877Z,5.32
2023-07-30T14:01:03.525Z,3.10
2023-07-30T14:02:05.825Z,3.75
2023-07-30T14:03:11.205Z,3.20
2023-07-30T14:04:16.047Z,2.53
2023-07-30T14:05:25.256Z,2.78
2023-07-30T14:06:28.280Z,2.45
2023-07-30T14:07:33.180Z,3.67
2023-07-30T14:08:34.770Z,3.63
2023-07-30T14:09:40.329Z,2.20
2023-07-30T14:11:00.181Z,2.08